createdAt,value
2019-05-20T00:03:16.813Z,14.85
2019-05-20T00:08:22.258Z,14.84
2019-05-20T00:13:27.722Z,14.83
2019-05-20T00:18:33.252Z,14.78
2019-05-20T00:23:38.778Z,14.74
2019-05-20T00:28:44.277Z,14.72
2019-05-20T00:33:49.774Z,14.69
2019-05-20T00:39:14.117Z,14.67
2019-05-20T00:44:19.822Z,14.65
2019-05-20T00:49:25.306Z,14.65
2019-05-20T00:54:31.024Z,14.64
2019-05-20T00:59:36.568Z,14.62
2019-05-20T01:04:42.117Z,14.60
2019-05-20T01:09:47.531Z,14.58
2019-05-20T01:14:53.106Z,14.57
2019-05-20T01:19:58.565Z,14.56
2019-05-20T01:25:04.118Z,14.55
2019-05-20T01:30:09.852Z,14.51
2019-05-20T01:35:15.280Z,14.49
2019-05-20T01:40:20.818Z,14.56
2019-05-20T01:45:26.246Z,14.77
2019-05-20T01:50:31.756Z,15.03
2019-05-20T01:55:37.165Z,15.26
2019-05-20T02:00:42.655Z,15.46
2019-05-20T02:05:48.142Z,15.63
2019-05-20T02:10:56.522Z,15.79
2019-05-20T02:16:05.230Z,15.93
2019-05-20T02:21:10.714Z,16.05
2019-05-20T02:26:16.256Z,16.15
2019-05-20T02:31:21.840Z,16.23
2019-05-20T02:36:27.327Z,16.31
2019-05-20T02:41:32.791Z,16.38
2019-05-20T02:46:38.193Z,16.44
2019-05-20T02:51:43.655Z,16.50
2019-05-20T02:56:49.077Z,16.56
2019-05-20T03:01:54.563Z,16.63
2019-05-20T03:07:00.070Z,16.69
2019-05-20T03:12:05.539Z,16.74
2019-05-20T03:17:10.964Z,16.75
2019-05-20T03:22:16.400Z,16.80
2019-05-20T03:27:21.879Z,16.81
2019-05-20T03:32:27.313Z,16.84
2019-05-20T03:37:32.827Z,16.86
2019-05-20T03:42:38.277Z,16.88
2019-05-20T03:47:43.848Z,16.91
2019-05-20T03:52:49.319Z,16.93
2019-05-20T03:57:54.768Z,16.98
2019-05-20T04:03:00.220Z,17.03
2019-05-20T04:08:05.691Z,17.07
2019-05-20T04:13:11.151Z,17.10
2019-05-20T04:18:16.656Z,17.13
2019-05-20T04:23:22.080Z,17.16
2019-05-20T04:28:27.524Z,17.16
2019-05-20T04:33:32.958Z,17.20
2019-05-20T04:38:38.446Z,17.24
2019-05-20T04:43:43.886Z,17.27
2019-05-20T04:48:49.341Z,17.31
2019-05-20T04:53:56.757Z,17.35
2019-05-20T04:59:02.483Z,17.37
2019-05-20T05:04:08.025Z,17.37
2019-05-20T05:09:15.581Z,17.37
2019-05-20T05:14:20.662Z,17.38
2019-05-20T05:19:26.204Z,17.41
2019-05-20T05:24:31.663Z,17.45
2019-05-20T05:29:37.129Z,17.52
2019-05-20T05:34:42.730Z,17.55
2019-05-20T05:39:48.373Z,17.59
2019-05-20T05:44:54.078Z,17.64
2019-05-20T05:50:00.013Z,17.69
2019-05-20T05:55:05.476Z,17.78
2019-05-20T06:00:10.911Z,17.84
2019-05-20T06:05:16.420Z,17.88
2019-05-20T06:10:22.024Z,17.94
2019-05-20T06:15:27.601Z,18.05
2019-05-20T06:20:33.073Z,18.16
2019-05-20T06:25:38.716Z,18.26
2019-05-20T06:30:45.675Z,18.34
2019-05-20T06:35:51.101Z,18.37
2019-05-20T06:40:56.620Z,18.43
2019-05-20T06:46:02.136Z,18.49
2019-05-20T06:51:07.687Z,18.53
2019-05-20T06:56:13.166Z,18.60
2019-05-20T07:01:18.585Z,18.71
2019-05-20T07:06:24.052Z,18.77
2019-05-20T07:11:29.492Z,18.78
2019-05-20T07:16:35.114Z,18.78
2019-05-20T07:21:40.619Z,18.79
2019-05-20T07:26:46.171Z,18.79
2019-05-20T07:31:51.686Z,18.82
2019-05-20T07:37:03.054Z,18.87
2019-05-20T07:42:04.314Z,18.88
2019-05-20T07:47:11.101Z,18.87
2019-05-20T07:52:16.921Z,18.89
2019-05-20T07:57:22.662Z,18.97
2019-05-20T08:02:28.822Z,19.09
2019-05-20T08:07:50.565Z,19.16
2019-05-20T08:12:41.545Z,19.26
2019-05-20T08:17:46.965Z,19.34
2019-05-20T08:22:52.391Z,19.34
2019-05-20T08:27:57.931Z,19.24
2019-05-20T08:33:03.497Z,19.11
2019-05-20T08:38:08.990Z,18.99
2019-05-20T08:43:14.469Z,18.89
2019-05-20T08:48:20.053Z,18.85
2019-05-20T08:53:25.567Z,18.84
2019-05-20T08:58:31.088Z,18.90
2019-05-20T09:03:36.565Z,18.93
2019-05-20T09:08:42.010Z,18.95
2019-05-20T09:13:47.567Z,18.97
2019-05-20T09:18:53.130Z,19.13
2019-05-20T09:23:58.559Z,19.32
2019-05-20T09:29:04.024Z,19.48
2019-05-20T09:34:09.551Z,19.53
2019-05-20T09:39:15.086Z,19.52
2019-05-20T09:44:20.543Z,19.48
2019-05-20T09:49:26.207Z,19.41
2019-05-20T09:54:31.781Z,19.36
2019-05-20T09:59:43.256Z,19.29
2019-05-20T10:04:44.659Z,19.30
2019-05-20T10:09:50.109Z,19.46
2019-05-20T10:14:55.634Z,19.75
2019-05-20T10:20:01.386Z,20.03
2019-05-20T10:25:07.101Z,20.09
2019-05-20T10:30:12.710Z,20.10
2019-05-20T10:35:18.728Z,20.07
2019-05-20T10:40:24.259Z,19.97
2019-05-20T10:45:29.884Z,19.90
2019-05-20T10:50:35.394Z,19.95
2019-05-20T10:55:41.724Z,20.16
2019-05-20T11:01:01.665Z,20.37
2019-05-20T11:05:54.463Z,20.50
2019-05-20T11:10:59.981Z,20.55
2019-05-20T11:16:05.420Z,20.53
2019-05-20T11:21:10.898Z,20.55
2019-05-20T11:26:16.466Z,20.59
2019-05-20T11:31:22.119Z,20.73
2019-05-20T11:36:27.569Z,20.89
2019-05-20T11:41:52.880Z,21.03
2019-05-20T11:46:40.266Z,21.15
2019-05-20T11:51:45.679Z,21.20
2019-05-20T11:56:51.284Z,21.18
2019-05-20T12:01:57.195Z,21.16
2019-05-20T12:07:02.861Z,21.21
2019-05-20T12:12:08.358Z,21.21
2019-05-20T12:17:13.833Z,21.17
2019-05-20T12:22:19.367Z,21.07
2019-05-20T12:27:24.825Z,20.82
2019-05-20T12:32:30.390Z,20.60
2019-05-20T12:37:36.137Z,20.45
2019-05-20T12:42:41.626Z,20.42
2019-05-20T12:47:47.133Z,20.60
2019-05-20T12:52:52.574Z,20.84
2019-05-20T12:57:58.058Z,21.07
2019-05-20T13:03:03.506Z,21.28
2019-05-20T13:08:09.147Z,21.42
2019-05-20T13:13:14.773Z,21.49
2019-05-20T13:18:21.244Z,21.52
2019-05-20T13:23:26.784Z,21.54
2019-05-20T13:28:32.587Z,21.50
2019-05-20T13:33:38.341Z,21.48
2019-05-20T13:38:43.841Z,21.45
2019-05-20T13:43:49.330Z,21.44
2019-05-20T13:48:54.815Z,21.48
2019-05-20T13:54:00.372Z,21.59
2019-05-20T13:59:05.889Z,21.81
2019-05-20T14:04:11.588Z,22.10
2019-05-20T14:09:17.023Z,22.28
2019-05-20T14:14:22.529Z,22.35
2019-05-20T14:19:28.033Z,22.21
2019-05-20T14:24:33.520Z,22.10
2019-05-20T14:29:39.013Z,22.05
2019-05-20T14:34:44.546Z,22.10
2019-05-20T14:39:50.129Z,21.93
2019-05-20T14:44:55.759Z,21.74
2019-05-20T14:50:01.179Z,21.56
2019-05-20T14:55:06.873Z,21.41
2019-05-20T15:00:12.299Z,21.20
2019-05-20T15:05:17.718Z,20.97
2019-05-20T15:10:23.165Z,20.77
2019-05-20T15:15:28.669Z,20.65
2019-05-20T15:20:34.102Z,20.67
2019-05-20T15:25:39.584Z,20.71
2019-05-20T15:30:45.008Z,20.78
2019-05-20T15:35:50.413Z,20.83
2019-05-20T15:40:55.865Z,20.87
2019-05-20T15:46:01.319Z,20.90
2019-05-20T15:51:06.850Z,20.91
2019-05-20T15:56:12.297Z,20.95
2019-05-20T16:01:17.830Z,20.89
2019-05-20T16:06:23.308Z,20.87
2019-05-20T16:11:28.910Z,20.82
2019-05-20T16:16:34.446Z,20.81
2019-05-20T16:21:40.230Z,20.79
2019-05-20T16:26:45.759Z,20.74
2019-05-20T16:31:51.495Z,20.68
2019-05-20T16:36:57.234Z,20.68
2019-05-20T16:42:02.759Z,20.62
2019-05-20T16:47:08.265Z,20.51
2019-05-20T16:52:14.144Z,20.38
2019-05-20T16:57:19.808Z,20.30
2019-05-20T17:02:25.342Z,20.21
2019-05-20T17:07:31.695Z,20.05
2019-05-20T17:12:37.881Z,20.00
2019-05-20T17:17:43.617Z,19.94
2019-05-20T17:22:50.225Z,19.86
2019-05-20T17:27:56.743Z,19.76
2019-05-20T17:33:02.244Z,19.68
2019-05-20T17:38:07.740Z,19.60
2019-05-20T17:43:13.189Z,19.48
2019-05-20T17:48:18.797Z,19.39
2019-05-20T17:53:24.422Z,19.34
2019-05-20T17:58:30.237Z,19.30
2019-05-20T18:03:35.881Z,19.27
2019-05-20T18:08:44.588Z,19.23
2019-05-20T18:13:50.249Z,19.16
2019-05-20T18:18:55.894Z,19.15
2019-05-20T18:24:01.648Z,19.12
2019-05-20T18:29:07.278Z,19.08
2019-05-20T18:34:12.960Z,19.01
2019-05-20T18:39:18.535Z,18.91
2019-05-20T18:44:24.231Z,18.81
2019-05-20T18:49:29.956Z,18.76
2019-05-20T18:54:35.516Z,18.74
2019-05-20T18:59:41.188Z,18.72
2019-05-20T19:04:46.647Z,18.71
2019-05-20T19:09:52.257Z,18.69
2019-05-20T19:14:57.862Z,18.67
2019-05-20T19:20:03.639Z,18.63
2019-05-20T19:25:09.118Z,18.58
2019-05-20T19:30:14.681Z,18.54
2019-05-20T19:35:20.329Z,18.51
2019-05-20T19:40:25.803Z,18.45
2019-05-20T19:45:31.328Z,18.39
2019-05-20T19:50:36.889Z,18.37
2019-05-20T19:55:42.426Z,18.32
2019-05-20T20:00:47.921Z,18.30
2019-05-20T20:05:53.356Z,18.24
2019-05-20T20:10:58.800Z,18.21
2019-05-20T20:16:04.330Z,18.19
2019-05-20T20:21:10.123Z,18.18
2019-05-20T20:26:15.643Z,18.17
2019-05-20T20:31:21.072Z,18.14
2019-05-20T20:36:26.492Z,18.12
2019-05-20T20:41:31.965Z,18.09
2019-05-20T20:46:40.388Z,18.03
2019-05-20T20:51:44.600Z,18.00
2019-05-20T20:56:50.132Z,17.98
2019-05-20T21:01:59.140Z,17.97
2019-05-20T21:07:02.943Z,17.95
2019-05-20T21:12:08.472Z,17.98
2019-05-20T21:17:13.908Z,17.98
2019-05-20T21:22:19.381Z,17.97
2019-05-20T21:27:24.855Z,17.93
2019-05-20T21:32:30.375Z,17.85
2019-05-20T21:37:36.039Z,17.77
2019-05-20T21:42:41.492Z,17.70
2019-05-20T21:47:46.975Z,17.62
2019-05-20T21:52:52.476Z,17.57
2019-05-20T21:57:58.004Z,17.50
2019-05-20T22:03:03.460Z,17.46
2019-05-20T22:08:10.664Z,17.40
2019-05-20T22:13:16.132Z,17.33
2019-05-20T22:18:21.632Z,17.28
2019-05-20T22:23:41.016Z,17.24
2019-05-20T22:28:46.867Z,17.19
2019-05-20T22:33:52.383Z,17.13
2019-05-20T22:38:57.828Z,17.06
2019-05-20T22:44:03.334Z,16.99
2019-05-20T22:49:08.918Z,16.90
2019-05-20T22:54:14.496Z,16.90
2019-05-20T22:59:20.132Z,16.90
2019-05-20T23:04:42.311Z,16.86
2019-05-20T23:09:47.734Z,16.84
2019-05-20T23:14:53.260Z,16.83
2019-05-20T23:19:58.702Z,16.85
2019-05-20T23:25:04.252Z,16.86
2019-05-20T23:30:09.720Z,16.84
2019-05-20T23:35:15.150Z,16.82
2019-05-20T23:40:20.603Z,16.79
2019-05-20T23:45:26.009Z,16.75
2019-05-20T23:50:31.514Z,16.71
2019-05-20T23:55:36.949Z,16.67
